KOZR/OZR METAR and TAF weather

Enter ICAO airport designator
Station Type Date Time Source
KOZR METAR 2019/04/23 03:56 UTC NOAA

KOZR 230356Z AUTO 21003KT 10SM CLR 16/11 A3015 RMK AO2 SLP210 T01580114 $


Station Type Date Time Source
KOZR Decoded METAR 2019/04/23 03:56 UTC NOAA

Cairns Army Air Field / Ozark, AL, United States (KOZR) 31-17N 085-43W
Apr 22, 2019 - 11:56 PM EDT / 2019.04.23 0356 UTC
Wind: from the SSW (210 degrees) at 3 MPH (3 KT):0
Visibility: 10 mile(s):0
Sky conditions: clear
Temperature: 60.4 F (15.8 C)
Dew Point: 52.5 F (11.4 C)
Relative Humidity: 75%
Pressure (altimeter): 30.15 in. Hg (1020 hPa)
ob: KOZR 230356Z AUTO 21003KT 10SM CLR 16/11 A3015 RMK AO2 SLP210 T01580114
cycle: 4

Station Type Date Time Source
KOZR TAF 2019/04/23 00:04 UTC NOAA

TAF KOZR 230000Z 2300/2406 VRB06KT 9999 SKC QNH3006INS TX29/2320Z TN12/2311Z

Example: see airport list